Overview Statistics Trail Chart Weather Telemetry Raw packets
 

This is the latest recevied weather packets stored in our database for station/object C31FR-13. If no packets are shown the sender has not sent any weather packets the latest 10 day(s).

<< 8 9 10 11 12 13 14 >>
Time Temp. Humidity Pressure Rain* Wind** Luminosity Snow
1788361562 30.56° C 27% 1022.5 hPa - - - -
1788360662 30° C 27% 1022.7 hPa - - - -
1788357962 28.89° C 30% 1023.1 hPa - - - -
1788355862 28.89° C 32% 1023.2 hPa - - - -
1788349562 26.67° C 39% 1023.9 hPa - - - -
1788348362 26.11° C 42% 1024 hPa - - - -
1788347762 26.11° C 44% 1024.1 hPa - - - -
1788346562 25.56° C 47% 1024.2 hPa - - - -
1788346262 25.56° C 46% 1024.3 hPa - - - -
1788345362 25° C 48% 1024.4 hPa - - - -
1788342662 23.33° C 52% 1025.1 hPa - - - -
1788337861 20.56° C 58% 1025.2 hPa - - - -
1788333362 19.44° C 63% 1025.3 hPa - - - -
1788332762 19.44° C 63% 1025.3 hPa - - - -
1788332462 19.44° C 64% 1025.4 hPa - - - -
1788331862 18.89° C 64% 1025.4 hPa - - - -
1788330363 18.89° C 65% 1025.1 hPa - - - -
1788330062 18.33° C 65% 1025.1 hPa - - - -
1788327363 18.89° C 65% 1024.6 hPa - - - -
1788326462 18.89° C 65% 1024.5 hPa - - - -
1788325862 18.89° C 66% 1024.3 hPa - - - -
1788323162 19.44° C 65% 1024.4 hPa - - - -
1788321963 19.44° C 64% 1024.3 hPa - - - -
1788320462 19.44° C 64% 1024.4 hPa - - - -
1788320162 19.44° C 64% 1024.5 hPa - - - -

* Rain since midnight (hover to see other rain measurements)
** Current wind speed in m/s (hover to see current wind gust speed)